createdAt,value
2022-12-09T00:01:21.094Z,97.75
2022-12-09T00:03:48.183Z,97.01
2022-12-09T00:06:22.969Z,97.02
2022-12-09T00:08:50.150Z,96.87
2022-12-09T00:11:17.515Z,96.99
2022-12-09T00:13:44.452Z,96.99
2022-12-09T00:16:13.537Z,97.20
2022-12-09T00:18:40.657Z,96.65
2022-12-09T00:21:25.229Z,97.33
2022-12-09T00:23:53.141Z,96.27
2022-12-09T00:26:20.977Z,97.28
2022-12-09T00:28:49.072Z,96.92
2022-12-09T00:31:18.403Z,97.11
2022-12-09T00:33:45.380Z,97.33
2022-12-09T00:36:14.640Z,97.08
2022-12-09T00:38:41.523Z,97.90
2022-12-09T00:41:07.957Z,97.28
2022-12-09T00:43:34.872Z,97.72
2022-12-09T00:46:01.684Z,98.81
2022-12-09T00:48:28.791Z,96.88
2022-12-09T00:50:55.419Z,98.75
2022-12-09T00:53:21.925Z,98.46
2022-12-09T00:55:48.572Z,98.57
2022-12-09T00:58:15.136Z,98.26
2022-12-09T01:00:41.587Z,97.13
2022-12-09T01:03:12.902Z,98.38
2022-12-09T01:05:39.564Z,98.89
2022-12-09T01:08:06.364Z,98.79
2022-12-09T01:10:36.856Z,97.88
2022-12-09T01:13:03.406Z,97.96
2022-12-09T01:15:30.607Z,98.00
2022-12-09T01:17:57.280Z,98.23
2022-12-09T01:20:24.138Z,98.41
2022-12-09T01:22:50.562Z,98.68
2022-12-09T01:25:17.026Z,99.72
2022-12-09T01:27:44.303Z,98.26
2022-12-09T01:30:13.011Z,98.45
2022-12-09T01:32:40.176Z,98.86
2022-12-09T01:35:07.250Z,99.48
2022-12-09T01:37:37.395Z,99.17
2022-12-09T01:40:12.142Z,99.22
2022-12-09T01:42:38.761Z,98.98
2022-12-09T01:45:23.582Z,98.86
2022-12-09T01:48:05.485Z,99.07
2022-12-09T01:50:33.438Z,99.09
2022-12-09T01:52:59.908Z,99.41
2022-12-09T01:55:27.373Z,99.88
2022-12-09T01:57:54.135Z,99.05
2022-12-09T02:00:20.967Z,98.13
2022-12-09T02:02:49.156Z,98.13
2022-12-09T02:05:16.223Z,99.13
2022-12-09T02:07:43.074Z,99.13
2022-12-09T02:10:13.020Z,98.93
2022-12-09T02:13:01.433Z,99.30
2022-12-09T02:15:52.310Z,99.21
2022-12-09T02:18:23.691Z,100.00
2022-12-09T02:20:56.664Z,99.43
2022-12-09T02:23:28.052Z,98.28
2022-12-09T02:26:06.388Z,99.57
2022-12-09T02:28:33.181Z,99.06
2022-12-09T02:31:20.444Z,99.34
2022-12-09T02:34:15.339Z,99.21
2022-12-09T02:37:03.713Z,98.56
2022-12-09T02:39:35.592Z,99.20
2022-12-09T02:42:04.692Z,99.25
2022-12-09T02:44:31.896Z,98.01
2022-12-09T02:46:59.007Z,98.35
2022-12-09T02:49:27.415Z,97.78
2022-12-09T02:51:54.431Z,97.88
2022-12-09T02:54:21.518Z,98.19
2022-12-09T02:56:57.192Z,97.12
2022-12-09T02:59:23.780Z,97.93
2022-12-09T03:02:18.578Z,97.98
2022-12-09T03:04:49.715Z,97.79
2022-12-09T03:07:30.848Z,98.16
2022-12-09T03:10:06.527Z,97.91
2022-12-09T03:12:34.165Z,97.83
2022-12-09T03:15:04.583Z,97.95
2022-12-09T03:17:34.178Z,97.04
2022-12-09T03:20:06.726Z,97.19
2022-12-09T03:22:35.555Z,96.30
2022-12-09T03:25:10.551Z,98.02
2022-12-09T03:27:57.774Z,96.65
2022-12-09T03:30:24.599Z,97.06
2022-12-09T03:32:51.592Z,97.38
2022-12-09T03:35:22.772Z,97.01
2022-12-09T03:37:51.260Z,96.43
2022-12-09T03:40:21.127Z,97.39
2022-12-09T03:42:51.378Z,97.27
2022-12-09T03:45:18.397Z,97.10
2022-12-09T03:47:45.209Z,97.25
2022-12-09T03:50:12.559Z,96.64
2022-12-09T03:52:52.875Z,97.29
2022-12-09T03:55:51.678Z,97.14
2022-12-09T03:58:18.092Z,96.03
2022-12-09T04:00:44.960Z,96.24
2022-12-09T04:03:13.503Z,96.15
2022-12-09T04:05:40.283Z,96.55
2022-12-09T04:08:07.181Z,95.78
2022-12-09T04:10:33.946Z,97.00
2022-12-09T04:13:00.373Z,96.35
2022-12-09T04:15:26.947Z,95.70
2022-12-09T04:17:53.509Z,95.76
2022-12-09T04:20:20.094Z,96.47
2022-12-09T04:22:46.902Z,96.19
2022-12-09T04:25:13.732Z,96.61
2022-12-09T04:27:40.223Z,96.06
2022-12-09T04:30:07.825Z,96.18
2022-12-09T04:32:34.659Z,95.81
2022-12-09T04:35:01.551Z,96.40
2022-12-09T04:37:28.275Z,97.04
2022-12-09T04:39:55.366Z,95.80
2022-12-09T04:42:21.868Z,96.60
2022-12-09T04:44:48.239Z,97.56
2022-12-09T04:47:14.896Z,96.78
2022-12-09T04:49:41.482Z,97.60
2022-12-09T04:52:08.025Z,97.36
2022-12-09T04:54:34.661Z,97.21
2022-12-09T04:57:01.115Z,96.41
2022-12-09T04:59:30.193Z,96.48
2022-12-09T05:01:56.751Z,98.05
2022-12-09T05:04:24.085Z,97.95
2022-12-09T05:06:50.728Z,96.83
2022-12-09T05:09:17.566Z,98.17
2022-12-09T05:11:44.316Z,98.15
2022-12-09T05:14:10.891Z,97.89
2022-12-09T05:16:37.491Z,98.17
2022-12-09T05:19:04.728Z,99.42
2022-12-09T05:21:31.414Z,98.84
2022-12-09T05:23:58.366Z,98.80
2022-12-09T05:26:25.111Z,99.80
2022-12-09T05:28:52.005Z,99.41
2022-12-09T05:31:21.995Z,98.43
2022-12-09T05:33:49.841Z,99.15
2022-12-09T05:36:20.160Z,99.67
2022-12-09T05:38:47.031Z,100.00
2022-12-09T05:41:13.641Z,100.00
2022-12-09T05:43:40.303Z,99.32
2022-12-09T05:46:07.830Z,99.83
2022-12-09T05:48:35.403Z,100.00
2022-12-09T05:51:08.142Z,100.00
2022-12-09T05:53:35.336Z,99.96
2022-12-09T05:56:02.305Z,100.00
2022-12-09T05:58:29.572Z,99.30
2022-12-09T06:00:57.939Z,99.39
2022-12-09T06:03:25.191Z,100.00
2022-12-09T06:05:52.367Z,100.00
2022-12-09T06:08:19.045Z,100.00
2022-12-09T06:10:45.610Z,100.00
2022-12-09T06:13:12.237Z,100.00
2022-12-09T06:15:39.171Z,100.00
2022-12-09T06:18:05.802Z,100.00
2022-12-09T06:20:32.526Z,100.00
2022-12-09T06:22:59.018Z,100.00
2022-12-09T06:25:26.184Z,100.00
2022-12-09T06:27:53.926Z,100.00
2022-12-09T06:30:20.951Z,100.00
2022-12-09T06:32:47.725Z,100.00
2022-12-09T06:35:15.446Z,100.00
2022-12-09T06:37:42.337Z,100.00
2022-12-09T06:40:09.503Z,99.73
2022-12-09T06:42:36.327Z,99.46
2022-12-09T06:45:03.196Z,99.76
2022-12-09T06:47:29.762Z,99.13
2022-12-09T06:50:02.586Z,99.62
2022-12-09T06:52:32.894Z,99.61
2022-12-09T06:54:59.444Z,99.56
2022-12-09T06:57:26.240Z,100.00
2022-12-09T06:59:53.068Z,100.00
2022-12-09T07:02:19.767Z,99.58
2022-12-09T07:04:46.883Z,99.70
2022-12-09T07:07:15.103Z,100.00
2022-12-09T07:09:41.992Z,99.58
2022-12-09T07:12:08.603Z,99.40
2022-12-09T07:14:36.899Z,100.00
2022-12-09T07:17:04.036Z,99.77
2022-12-09T07:19:31.325Z,99.28
2022-12-09T07:21:58.047Z,100.00
2022-12-09T07:24:24.796Z,99.91
2022-12-09T07:26:52.156Z,99.82
2022-12-09T07:29:18.908Z,99.79
2022-12-09T07:31:47.663Z,99.62
2022-12-09T07:34:14.463Z,99.40
2022-12-09T07:36:41.412Z,99.63
2022-12-09T07:39:12.090Z,99.66
2022-12-09T07:41:39.356Z,100.00
2022-12-09T07:44:06.241Z,99.85
2022-12-09T07:46:33.230Z,99.94
2022-12-09T07:49:01.962Z,100.00
2022-12-09T07:51:29.593Z,100.00
2022-12-09T07:53:57.151Z,100.00
2022-12-09T07:56:24.022Z,100.00
2022-12-09T07:58:53.385Z,100.00
2022-12-09T08:01:26.001Z,100.00
2022-12-09T08:03:53.281Z,100.00
2022-12-09T08:06:22.648Z,99.93
2022-12-09T08:08:50.225Z,100.00
2022-12-09T08:11:25.838Z,100.00
2022-12-09T08:13:53.919Z,100.00
2022-12-09T08:16:22.598Z,100.00
2022-12-09T08:18:50.458Z,100.00
2022-12-09T08:21:30.616Z,100.00
2022-12-09T08:23:59.759Z,100.00
2022-12-09T08:26:28.677Z,100.00
2022-12-09T08:28:55.648Z,100.00
2022-12-09T08:31:24.738Z,100.00
2022-12-09T08:33:52.263Z,100.00
2022-12-09T08:36:24.748Z,100.00
2022-12-09T08:38:51.642Z,100.00
2022-12-09T08:41:36.350Z,100.00
2022-12-09T08:44:15.555Z,100.00
2022-12-09T08:46:44.785Z,100.00
2022-12-09T08:49:12.622Z,100.00
2022-12-09T08:51:39.715Z,100.00
2022-12-09T08:54:06.966Z,99.98
2022-12-09T08:56:33.711Z,100.00
2022-12-09T08:59:00.585Z,100.00
2022-12-09T09:01:32.999Z,100.00
2022-12-09T09:04:15.532Z,100.00
2022-12-09T09:06:44.661Z,99.57
2022-12-09T09:09:13.282Z,99.41
2022-12-09T09:11:40.669Z,99.81
2022-12-09T09:14:10.233Z,99.68
2022-12-09T09:16:40.037Z,99.78
2022-12-09T09:19:07.886Z,99.52
2022-12-09T09:21:35.616Z,99.62
2022-12-09T09:24:03.071Z,99.38
2022-12-09T09:26:29.740Z,99.93
2022-12-09T09:28:57.977Z,100.00
2022-12-09T09:31:25.785Z,99.84
2022-12-09T09:33:53.032Z,99.76
2022-12-09T09:36:22.755Z,98.75
2022-12-09T09:38:51.464Z,99.05
2022-12-09T09:41:40.229Z,99.73
2022-12-09T09:44:22.517Z,98.85
2022-12-09T09:46:50.772Z,99.21
2022-12-09T09:49:23.744Z,99.31
2022-12-09T09:51:50.600Z,99.19
2022-12-09T09:54:17.460Z,99.24
2022-12-09T09:57:01.485Z,99.80
2022-12-09T09:59:40.059Z,99.00
2022-12-09T10:02:19.717Z,100.00
2022-12-09T10:05:26.065Z,100.00
2022-12-09T10:07:57.174Z,99.95
2022-12-09T10:10:44.532Z,99.84
2022-12-09T10:13:30.127Z,98.77
2022-12-09T10:16:27.163Z,99.97
2022-12-09T10:19:09.787Z,99.56
2022-12-09T10:21:40.998Z,99.50
2022-12-09T10:24:37.346Z,98.94
2022-12-09T10:27:21.239Z,98.93
2022-12-09T10:30:07.192Z,98.88
2022-12-09T10:32:35.840Z,99.73
2022-12-09T10:35:14.263Z,99.15
2022-12-09T10:37:41.045Z,99.50
2022-12-09T10:40:07.937Z,100.00
2022-12-09T10:43:05.682Z,99.29
2022-12-09T10:46:07.948Z,100.00
2022-12-09T10:48:33.641Z,100.00
2022-12-09T10:51:26.077Z,99.53
2022-12-09T10:53:54.887Z,100.00
2022-12-09T10:56:32.464Z,100.00
2022-12-09T10:59:20.349Z,99.95
2022-12-09T11:01:55.013Z,100.00
2022-12-09T11:04:25.660Z,100.00
2022-12-09T11:06:59.456Z,100.00
2022-12-09T11:09:37.850Z,100.00
2022-12-09T11:12:06.934Z,100.00
2022-12-09T11:14:33.609Z,100.00
2022-12-09T11:17:10.423Z,100.00
2022-12-09T11:19:39.093Z,100.00
2022-12-09T11:22:39.576Z,100.00
2022-12-09T11:25:13.039Z,100.00
2022-12-09T11:27:41.351Z,100.00
2022-12-09T11:30:17.777Z,100.00
2022-12-09T11:33:06.892Z,100.00
2022-12-09T11:35:36.539Z,99.54
2022-12-09T11:38:24.851Z,98.60
2022-12-09T11:41:02.031Z,98.86
2022-12-09T11:43:55.694Z,99.13
2022-12-09T11:46:25.206Z,99.12
2022-12-09T11:49:01.003Z,99.32
2022-12-09T11:51:36.334Z,99.08
2022-12-09T11:54:13.164Z,98.70
2022-12-09T11:56:40.917Z,98.17
2022-12-09T11:59:14.460Z,98.26
2022-12-09T12:01:52.452Z,98.02
2022-12-09T12:04:24.888Z,98.71
2022-12-09T12:07:01.635Z,97.16
2022-12-09T12:09:42.924Z,95.98
2022-12-09T12:12:09.208Z,96.27
2022-12-09T12:14:36.936Z,96.10
2022-12-09T12:17:18.147Z,95.29
2022-12-09T12:19:50.634Z,94.56
2022-12-09T12:22:50.196Z,94.77
2022-12-09T12:25:31.756Z,92.71
2022-12-09T12:28:26.164Z,91.07
2022-12-09T12:31:11.334Z,90.99
2022-12-09T12:34:24.062Z,89.66
2022-12-09T12:37:27.940Z,89.54
2022-12-09T12:40:08.185Z,88.40
2022-12-09T12:43:03.224Z,87.94
2022-12-09T12:45:54.973Z,87.39
2022-12-09T12:48:29.690Z,89.08
2022-12-09T12:51:08.075Z,88.11
2022-12-09T12:53:34.402Z,88.39
2022-12-09T12:56:08.539Z,87.40
2022-12-09T12:59:00.293Z,88.27
2022-12-09T13:01:30.600Z,88.80
2022-12-09T13:04:03.023Z,88.48
2022-12-09T13:06:56.338Z,87.62
2022-12-09T13:09:41.240Z,86.74
2022-12-09T13:12:45.662Z,87.23
2022-12-09T13:15:14.992Z,87.46
2022-12-09T13:17:42.538Z,86.44
2022-12-09T13:20:13.755Z,85.88
2022-12-09T13:23:02.034Z,86.06
2022-12-09T13:25:58.946Z,84.16
2022-12-09T13:28:30.611Z,84.24
2022-12-09T13:30:59.070Z,84.30
2022-12-09T13:34:04.413Z,85.18
2022-12-09T13:36:40.183Z,85.27
2022-12-09T13:39:09.977Z,84.65
2022-12-09T13:41:59.230Z,83.86
2022-12-09T13:44:30.860Z,83.49
2022-12-09T13:47:23.743Z,83.12
2022-12-09T13:50:06.290Z,82.67
2022-12-09T13:52:48.900Z,82.45
2022-12-09T13:55:32.892Z,82.23
2022-12-09T13:58:37.061Z,82.52
2022-12-09T14:01:12.420Z,83.18
2022-12-09T14:03:44.872Z,82.70
2022-12-09T14:06:40.704Z,83.96
2022-12-09T14:09:24.508Z,83.73
2022-12-09T14:11:52.900Z,82.98
2022-12-09T14:14:25.427Z,82.45
2022-12-09T14:16:59.815Z,83.22
2022-12-09T14:19:26.409Z,83.43
2022-12-09T14:22:21.593Z,82.70
2022-12-09T14:24:50.799Z,83.91
2022-12-09T14:27:21.221Z,83.79
2022-12-09T14:30:03.882Z,84.57
2022-12-09T14:32:55.011Z,83.39
2022-12-09T14:35:24.036Z,82.97
2022-12-09T14:38:14.878Z,83.18
2022-12-09T14:41:06.282Z,82.77
2022-12-09T14:43:45.839Z,83.06
2022-12-09T14:46:30.146Z,83.89
2022-12-09T14:48:58.205Z,83.50
2022-12-09T14:51:39.025Z,82.88
2022-12-09T14:54:33.872Z,83.52
2022-12-09T14:57:06.999Z,83.79
2022-12-09T14:59:34.170Z,83.09
2022-12-09T15:02:04.223Z,83.57
2022-12-09T15:04:41.976Z,83.87
2022-12-09T15:07:16.043Z,83.75
2022-12-09T15:09:54.807Z,84.10
2022-12-09T15:12:44.945Z,84.65
2022-12-09T15:15:31.597Z,84.22
2022-12-09T15:18:01.099Z,83.80
2022-12-09T15:20:33.887Z,84.81
2022-12-09T15:23:03.597Z,85.38
2022-12-09T15:25:30.125Z,85.75
2022-12-09T15:28:02.726Z,86.18
2022-12-09T15:30:37.000Z,85.23
2022-12-09T15:33:04.070Z,85.98
2022-12-09T15:35:33.787Z,85.91
2022-12-09T15:38:03.212Z,87.33
2022-12-09T15:40:30.666Z,87.12
2022-12-09T15:43:03.273Z,87.67
2022-12-09T15:45:35.873Z,87.31
2022-12-09T15:48:05.117Z,88.43
2022-12-09T15:50:37.595Z,88.17
2022-12-09T15:53:28.273Z,88.95
2022-12-09T15:56:03.334Z,89.27
2022-12-09T15:58:34.378Z,88.87
2022-12-09T16:01:01.876Z,88.46
2022-12-09T16:03:30.067Z,87.93
2022-12-09T16:05:58.678Z,88.86
2022-12-09T16:08:32.294Z,89.11
2022-12-09T16:10:58.784Z,89.77
2022-12-09T16:13:25.304Z,89.82
2022-12-09T16:15:54.297Z,88.57
2022-12-09T16:18:35.054Z,89.83
2022-12-09T16:21:01.428Z,90.12
2022-12-09T16:23:27.932Z,89.21
2022-12-09T16:26:04.904Z,90.35
2022-12-09T16:28:33.333Z,89.91
2022-12-09T16:31:02.589Z,89.92
2022-12-09T16:33:33.320Z,89.31
2022-12-09T16:36:02.273Z,90.21
2022-12-09T16:38:30.090Z,91.40
2022-12-09T16:40:58.983Z,91.38
2022-12-09T16:43:26.369Z,92.08
2022-12-09T16:45:56.324Z,90.96
2022-12-09T16:48:24.649Z,91.75
2022-12-09T16:50:54.363Z,91.17
2022-12-09T16:53:23.566Z,92.32
2022-12-09T16:56:00.993Z,92.60
2022-12-09T16:58:33.578Z,91.09
2022-12-09T17:01:01.056Z,91.78
2022-12-09T17:03:33.560Z,91.49
2022-12-09T17:06:01.181Z,91.52
2022-12-09T17:08:27.841Z,92.07
2022-12-09T17:10:54.403Z,92.66
2022-12-09T17:13:20.831Z,91.55
2022-12-09T17:15:47.257Z,92.54
2022-12-09T17:18:13.703Z,91.94
2022-12-09T17:20:40.280Z,92.96
2022-12-09T17:23:06.734Z,92.30
2022-12-09T17:25:33.273Z,93.42
2022-12-09T17:28:05.792Z,92.63
2022-12-09T17:30:37.070Z,92.66
2022-12-09T17:33:03.554Z,92.35
2022-12-09T17:35:33.716Z,92.89
2022-12-09T17:38:02.192Z,93.21
2022-12-09T17:40:28.571Z,92.56
2022-12-09T17:42:55.025Z,93.29
2022-12-09T17:45:21.402Z,93.38
2022-12-09T17:47:48.783Z,93.84
2022-12-09T17:50:15.289Z,93.58
2022-12-09T17:52:42.180Z,93.49
2022-12-09T17:55:08.931Z,94.02
2022-12-09T17:57:35.495Z,93.33
2022-12-09T18:00:02.425Z,94.22
2022-12-09T18:02:28.936Z,93.59
2022-12-09T18:04:55.410Z,94.63
2022-12-09T18:07:21.775Z,93.60
2022-12-09T18:09:54.205Z,93.37
2022-12-09T18:12:21.001Z,93.47
2022-12-09T18:14:47.501Z,93.00
2022-12-09T18:17:13.887Z,93.95
2022-12-09T18:19:40.357Z,93.67
2022-12-09T18:22:06.821Z,95.19
2022-12-09T18:24:33.510Z,95.28
2022-12-09T18:27:00.287Z,95.18
2022-12-09T18:29:27.024Z,95.71
2022-12-09T18:31:56.720Z,94.57
2022-12-09T18:34:24.272Z,94.86
2022-12-09T18:36:50.808Z,94.10
2022-12-09T18:39:26.501Z,94.55
2022-12-09T18:41:53.002Z,94.05
2022-12-09T18:44:19.687Z,94.17
2022-12-09T18:46:48.761Z,94.85
2022-12-09T18:49:17.986Z,93.93
2022-12-09T18:51:45.824Z,94.52
2022-12-09T18:54:20.509Z,94.79
2022-12-09T18:56:47.003Z,93.63
2022-12-09T18:59:13.479Z,94.42
2022-12-09T19:01:42.399Z,93.74
2022-12-09T19:04:24.210Z,94.36
2022-12-09T19:06:52.622Z,94.17
2022-12-09T19:09:21.418Z,95.03
2022-12-09T19:11:48.984Z,94.98
2022-12-09T19:14:16.496Z,94.99
2022-12-09T19:16:46.093Z,94.40
2022-12-09T19:19:18.437Z,95.17
2022-12-09T19:21:45.567Z,94.95
2022-12-09T19:24:16.282Z,94.08
2022-12-09T19:26:43.255Z,94.45
2022-12-09T19:29:10.511Z,94.53
2022-12-09T19:31:41.191Z,94.03
2022-12-09T19:34:12.755Z,95.18
2022-12-09T19:36:39.409Z,94.87
2022-12-09T19:39:08.193Z,94.62
2022-12-09T19:41:35.924Z,95.37
2022-12-09T19:44:04.031Z,94.26
2022-12-09T19:46:31.249Z,94.42
2022-12-09T19:48:58.464Z,94.70
2022-12-09T19:51:26.049Z,95.02
2022-12-09T19:53:54.087Z,94.80
2022-12-09T19:56:20.974Z,95.36
2022-12-09T19:58:47.727Z,95.54
2022-12-09T20:01:16.289Z,95.44
2022-12-09T20:03:44.542Z,95.61
2022-12-09T20:06:13.393Z,95.65
2022-12-09T20:08:39.867Z,95.51
2022-12-09T20:11:11.849Z,95.41
2022-12-09T20:13:38.251Z,94.95
2022-12-09T20:16:05.951Z,95.28
2022-12-09T20:18:32.507Z,95.36
2022-12-09T20:21:02.527Z,95.61
2022-12-09T20:23:28.946Z,95.98
2022-12-09T20:25:55.644Z,96.09
2022-12-09T20:28:22.048Z,96.37
2022-12-09T20:30:48.647Z,96.97
2022-12-09T20:33:15.075Z,96.47
2022-12-09T20:35:41.495Z,96.92
2022-12-09T20:38:08.290Z,96.68
2022-12-09T20:40:40.527Z,96.75
2022-12-09T20:43:07.287Z,96.10
2022-12-09T20:45:33.750Z,97.16
2022-12-09T20:48:00.204Z,96.64
2022-12-09T20:50:26.626Z,96.76
2022-12-09T20:52:53.310Z,96.58
2022-12-09T20:55:20.517Z,97.11
2022-12-09T20:57:46.904Z,96.38
2022-12-09T21:00:13.526Z,96.76
2022-12-09T21:02:40.060Z,96.78
2022-12-09T21:05:08.364Z,96.36
2022-12-09T21:07:34.871Z,97.15
2022-12-09T21:10:01.351Z,96.93
2022-12-09T21:12:27.719Z,97.20
2022-12-09T21:14:54.157Z,96.56
2022-12-09T21:17:20.573Z,97.01
2022-12-09T21:19:47.212Z,97.13
2022-12-09T21:22:13.590Z,96.82
2022-12-09T21:24:40.022Z,97.33
2022-12-09T21:27:06.419Z,97.27
2022-12-09T21:29:32.811Z,97.61
2022-12-09T21:32:00.420Z,97.76
2022-12-09T21:34:27.146Z,97.81
2022-12-09T21:36:53.538Z,97.70
2022-12-09T21:39:20.012Z,97.21
2022-12-09T21:41:46.619Z,97.38
2022-12-09T21:44:17.094Z,97.10
2022-12-09T21:46:43.848Z,97.59
2022-12-09T21:49:10.772Z,97.53
2022-12-09T21:51:37.573Z,97.58
2022-12-09T21:54:07.556Z,97.49
2022-12-09T21:56:35.658Z,98.27
2022-12-09T21:59:03.261Z,97.72
2022-12-09T22:01:34.079Z,97.61
2022-12-09T22:04:01.914Z,98.25
2022-12-09T22:06:28.954Z,98.62
2022-12-09T22:08:55.970Z,98.54
2022-12-09T22:11:24.873Z,98.33
2022-12-09T22:13:51.945Z,98.08
2022-12-09T22:16:23.490Z,98.78
2022-12-09T22:18:52.863Z,98.90
2022-12-09T22:21:25.732Z,98.36
2022-12-09T22:24:00.342Z,97.95
2022-12-09T22:26:27.285Z,97.88
2022-12-09T22:28:54.086Z,97.27
2022-12-09T22:31:29.505Z,97.79
2022-12-09T22:33:59.822Z,98.62
2022-12-09T22:36:26.516Z,98.28
2022-12-09T22:38:53.500Z,98.21
2022-12-09T22:41:22.682Z,97.59
2022-12-09T22:43:49.817Z,98.10
2022-12-09T22:46:21.583Z,97.73
2022-12-09T22:48:48.439Z,97.65
2022-12-09T22:51:17.612Z,97.75
2022-12-09T22:53:44.561Z,97.71
2022-12-09T22:56:11.783Z,97.79
2022-12-09T22:58:38.543Z,98.30
2022-12-09T23:01:16.853Z,97.75
2022-12-09T23:03:45.034Z,98.24
2022-12-09T23:06:11.752Z,97.42
2022-12-09T23:08:39.423Z,97.45
2022-12-09T23:11:22.984Z,98.06
2022-12-09T23:13:49.660Z,98.07
2022-12-09T23:16:19.014Z,98.07
2022-12-09T23:18:46.070Z,98.50
2022-12-09T23:21:17.748Z,97.94
2022-12-09T23:23:44.496Z,97.68
2022-12-09T23:26:13.318Z,98.02
2022-12-09T23:28:45.056Z,98.08
2022-12-09T23:31:13.931Z,99.12
2022-12-09T23:33:42.172Z,98.22
2022-12-09T23:36:10.206Z,98.24
2022-12-09T23:38:37.594Z,97.99
2022-12-09T23:41:04.486Z,97.90
2022-12-09T23:43:32.025Z,98.87
2022-12-09T23:46:12.897Z,98.07
2022-12-09T23:48:41.944Z,98.24
2022-12-09T23:51:12.489Z,97.77
2022-12-09T23:53:40.037Z,98.19
2022-12-09T23:56:07.531Z,98.14
2022-12-09T23:58:34.096Z,97.97
